ADDS METAR Data INFO
IDs: Format: Raw Decoded Include TAF

Data at: 0923 UTC 13 Dec 2017

KMQI 130905Z AUTO 33011G21KT 10SM CLR M01/M14 A2983 RMK AO2 T10131142
KMQI 130845Z AUTO 33016G24KT 10SM SCT050 M01/M14 A2983 RMK AO2 T10111138
KMQI 130825Z AUTO 31016G22KT 10SM SCT050 M01/M13 A2982 RMK AO2 T10101132
KMQI 130805Z AUTO 32016G23KT 10SM SCT050 M01/M12 A2981 RMK AO2 T10071122
KMQI 130745Z AUTO 33012G25KT 10SM BKN050 BKN065 00/M11 A2980 RMK AO2 T10011107
KMQI 130725Z AUTO 32012G20KT 10SM SCT050 SCT065 00/M11 A2978 RMK AO2 T00001108
KMQI 130705Z AUTO 33012G22KT 310V010 10SM SCT050 00/M10 A2977 RMK AO2 T00001105
KMQI 130645Z AUTO 32012G23KT 10SM SCT050 00/M11 A2977 RMK AO2 T00031109
KMQI 130625Z AUTO 32010G21KT 10SM SCT055 SCT070 01/M10 A2975 RMK AO2 T00061105
KMQI 130605Z AUTO 33011G25KT 300V360 10SM SCT055 BKN070 01/M10 A2974 RMK AO2 T00101103
KMQI 130545Z AUTO 32014G25KT 10SM BKN060 02/M10 A2973 RMK AO2 T00151098
KMQI 130525Z AUTO 33015G22KT 10SM SCT044 BKN060 02/M09 A2972 RMK AO2 T00181094
KMQI 130505Z AUTO 33016G26KT 290V350 10SM SCT031 BKN041 OVC055 03/M07 A2972 RMK AO2 T00251073
KMQI 130445Z AUTO 35013G22KT 10SM SCT029 BKN041 OVC055 03/M02 A2970 RMK AO2 T00261022
KMQI 130425Z AUTO 35011G19KT 10SM -RA SCT012 BKN028 OVC055 02/M01 A2969 RMK AO2 T00211011
KMQI 130405Z AUTO 36011G19KT 10SM -RA SCT023 BKN031 OVC050 03/M01 A2967 RMK AO2 T00341013
KMQI 130345Z AUTO 33011G17KT 10SM SCT022 SCT029 OVC070 04/M01 A2968 RMK AO2 T00351011
KMQI 130325Z AUTO 34017G26KT 10SM SCT017 BKN025 OVC070 03/00 A2966 RMK AO2 T00321001
KMQI 130305Z AUTO 33014G24KT 10SM DZ SCT015 BKN037 OVC060 04/00 A2964 RMK AO2 T00410001
KMQI 130245Z AUTO 31015G31KT 10SM SCT043 BKN060 OVC070 06/M01 A2965 RMK AO2 T00591012
KMQI 130225Z AUTO 32018G26KT 10SM BKN060 BKN070 OVC090 07/M02 A2962 RMK AO2 T00701025
KMQI 130205Z AUTO 32015G25KT 10SM BKN090 08/M01 A2960 RMK AO2 T00761014
KMQI 130145Z AUTO 32012G21KT 10SM CLR 08/00 A2958 RMK AO2 T00821003
KMQI 130125Z AUTO 32010G16KT 10SM CLR 09/00 A2958 RMK AO2 T00851001
KMQI 130105Z AUTO 32010G15KT 10SM CLR 09/01 A2957 RMK AO2 T00860012
KMQI 130045Z AUTO 32009G17KT 10SM SCT075 09/02 A2956 RMK AO2 T00880016
KMQI 130025Z AUTO 31009G16KT 10SM SCT050 BKN075 09/03 A2956 RMK AO2 T00880027
KMQI 130005Z AUTO 31006KT 10SM SCT050 SCT060 BKN075 09/04 A2956 RMK AO2 T00860036
KMQI 122345Z AUTO 31007KT 10SM SCT060 BKN075 09/04 A2955 RMK AO2 T00900037
KMQI 122325Z AUTO 31007KT 10SM CLR 09/03 A2956 RMK AO2 T00900034
KMQI 122305Z AUTO 31006KT 10SM CLR 09/03 A2956 RMK AO2 T00900034
KMQI 122245Z AUTO 31008KT 10SM CLR 09/04 A2957 RMK AO2 T00930036
KMQI 122225Z AUTO 31009G14KT 10SM SCT120 10/04 A2956 RMK AO2 T00950038
KMQI 122205Z AUTO 31010G16KT 10SM SCT120 10/04 A2956 RMK AO2 T01000037
KMQI 122145Z AUTO 31010G15KT 10SM CLR 10/04 A2956 RMK AO2 T01000042
KMQI 122125Z AUTO 31008G14KT 10SM CLR 10/04 A2955 RMK AO2 T01020036
KMQI 122105Z AUTO 31009KT 10SM CLR 11/03 A2955 RMK AO2 T01050034
KMQI 122045Z AUTO 31008KT 10SM CLR 11/04 A2955 RMK AO2 T01080042
KMQI 122025Z AUTO 32010G15KT 10SM CLR 11/05 A2955 RMK AO2 T01120046
KMQI 122005Z AUTO 33006KT 10SM CLR 12/04 A2954 RMK AO2 T01180043
KMQI 121945Z AUTO 31008KT 10SM CLR 12/04 A2955 RMK AO2 T01220044
KMQI 121925Z AUTO 27009KT 10SM CLR 13/04 A2955 RMK AO2 T01250044
KMQI 121905Z AUTO 27009G14KT 10SM CLR 13/04 A2956 RMK AO2 T01260042
KMQI 121845Z AUTO 26010G15KT 10SM CLR 13/04 A2957 RMK AO2 T01260040
KMQI 121825Z AUTO 26012G19KT 10SM CLR 13/03 A2957 RMK AO2 T01310034
KMQI 121805Z AUTO 25015G20KT 10SM CLR 13/04 A2958 RMK AO2 T01320036
KMQI 121745Z AUTO 26012G17KT 10SM CLR 13/04 A2959 RMK AO2 T01260040
KMQI 121725Z AUTO 27010KT 10SM CLR 12/05 A2959 RMK AO2 T01210046
KMQI 121705Z AUTO 26009KT 10SM CLR 12/05 A2960 RMK AO2 T01240048
KMQI 121645Z AUTO 25012KT 10SM CLR 12/05 A2961 RMK AO2 T01210045
KMQI 121625Z AUTO 25016KT 10SM CLR 12/05 A2963 RMK AO2 T01200048
KMQI 121605Z AUTO 25013G18KT 10SM CLR 12/05 A2965 RMK AO2 T01220046
KMQI 121545Z AUTO 25014KT 10SM CLR 13/05 A2967 RMK AO2 T01250045
KMQI 121525Z AUTO 24011KT 10SM CLR 12/05 A2968 RMK AO2 T01200052
KMQI 121505Z AUTO 23011KT 10SM CLR 11/06 A2969 RMK AO2 T01130055
KMQI 121445Z AUTO 23012KT 10SM CLR 10/06 A2969 RMK AO2 T01040055
KMQI 121425Z AUTO 22013KT 10SM CLR 10/05 A2971 RMK AO2 T00970053
KMQI 121405Z AUTO 22014KT 10SM CLR 09/05 A2972 RMK AO2 T00900052
KMQI 121345Z AUTO 22013KT 10SM CLR 09/05 A2973 RMK AO2 T00880053
KMQI 121325Z AUTO 23013KT 10SM CLR 09/05 A2974 RMK AO2 T00850052
KMQI 121305Z AUTO 23013KT 10SM CLR 08/06 A2975 RMK AO2 T00800055
KMQI 121245Z AUTO 22012KT 10SM CLR 08/06 A2976 RMK AO2 T00760055
KMQI 121225Z AUTO 22012KT 10SM CLR 08/06 A2977 RMK AO2 T00770055
KMQI 121205Z AUTO 22011KT 10SM CLR 07/05 A2977 RMK AO2 T00670046
KMQI 121145Z AUTO 21011KT 10SM CLR 06/03 A2978 RMK AO2 T00630034
KMQI 121125Z AUTO 22011KT 10SM CLR 06/03 A2980 RMK AO2 T00610027
KMQI 121105Z AUTO 21012KT 10SM CLR 06/02 A2980 RMK AO2 T00570024
KMQI 121045Z AUTO 22011KT 10SM CLR 06/02 A2981 RMK AO2 T00550021
KMQI 121025Z AUTO 23009KT 10SM CLR 06/02 A2982 RMK AO2 T00580020
KMQI 121005Z AUTO 23009KT 10SM CLR 06/02 A2982 RMK AO2 T00600019
KMQI 120945Z AUTO 23009KT 10SM CLR 06/02 A2983 RMK AO2 T00610018
KMQI 120925Z AUTO 23008KT 10SM CLR 06/02 A2984 RMK AO2 T00620022
KMQI 120905Z AUTO 24006KT 10SM CLR 06/02 A2985 RMK AO2 T00600023
KMQI 120845Z AUTO 25005KT 10SM CLR 06/03 A2987 RMK AO2 T00610025
KMQI 120825Z AUTO 25007KT 10SM CLR 07/03 A2987 RMK AO2 T00660030
KMQI 120805Z AUTO 24005KT 10SM CLR 07/05 A2989 RMK AO2 T00670045
KMQI 120745Z AUTO 26006KT 10SM CLR 06/04 A2990 RMK AO2 T00600044
KMQI 120725Z AUTO 00000KT 10SM CLR 04/04 A2990 RMK AO2 T00370035
KMQI 120705Z AUTO 00000KT 10SM CLR 03/03 A2990 RMK AO2 T00320026
KMQI 120645Z AUTO 19003KT 10SM CLR 04/02 A2991 RMK AO2 T00360023
KMQI 120625Z AUTO 19004KT 10SM CLR 02/01 A2992 RMK AO2 T00210011
KMQI 120605Z AUTO 00000KT 10SM CLR 02/01 A2993 RMK AO2 T00200012
KMQI 120545Z AUTO 00000KT 10SM CLR 03/02 A2995 RMK AO2 T00260016
KMQI 120525Z AUTO 00000KT 10SM CLR 02/01 A2995 RMK AO2 T00170010
KMQI 120505Z AUTO 00000KT 10SM CLR 02/01 A2996 RMK AO2 T00240012
KMQI 120445Z AUTO 16003KT 10SM CLR 02/00 A2998 RMK AO2 T00230002
KMQI 120425Z AUTO 00000KT 10SM CLR 03/00 A2998 RMK AO2 T00250002
KMQI 120405Z AUTO 16005KT 10SM CLR 06/02 A2999 RMK AO2 T00550015
KMQI 120345Z AUTO 16003KT 10SM CLR 05/01 A3000 RMK AO2 T00460012
KMQI 120325Z AUTO 15003KT 10SM CLR 02/00 A3001 RMK AO2 T00210003
KMQI 120305Z AUTO 00000KT 10SM CLR 02/00 A3002 RMK AO2 T00210002
KMQI 120245Z AUTO 00000KT 10SM CLR 02/00 A3003 RMK AO2 T00190000
KMQI 120225Z AUTO 00000KT 10SM CLR 03/00 A3003 RMK AO2 T00300000
KMQI 120205Z AUTO 00000KT 10SM CLR 01/00 A3002 RMK AO2 T00141001
KMQI 120145Z AUTO 00000KT 10SM CLR 03/00 A3003 RMK AO2 T00270000
KMQI 120125Z AUTO 16003KT 10SM CLR 02/00 A3004 RMK AO2 T00200003
KMQI 120105Z AUTO 00000KT 10SM CLR 02/00 A3004 RMK AO2 T00200003
KMQI 120045Z AUTO 00000KT 10SM CLR 02/00 A3005 RMK AO2 T00200001
KMQI 120025Z AUTO 00000KT 10SM CLR 02/00 A3005 RMK AO2 T00180003
KMQI 120005Z AUTO 00000KT 10SM CLR 02/00 A3005 RMK AO2 T00210004
KMQI 112345Z AUTO 00000KT 10SM CLR 03/00 A3005 RMK AO2 T00260000
KMQI 112325Z AUTO 00000KT 10SM CLR 03/01 A3005 RMK AO2 T00250006
KMQI 112305Z AUTO 00000KT 10SM CLR 03/01 A3005 RMK AO2 T00300010
KMQI 112245Z AUTO 00000KT 10SM CLR 03/01 A3005 RMK AO2 T00320007
KMQI 112225Z AUTO 00000KT 10SM CLR 05/01 A3006 RMK AO2 T00450010
KMQI 112205Z AUTO 00000KT 10SM CLR 05/01 A3005 RMK AO2 T00500005
KMQI 112145Z AUTO 00000KT 10SM CLR 06/00 A3005 RMK AO2 T00600000
KMQI 112125Z AUTO 00000KT 10SM CLR 07/00 A3006 RMK AO2 T00681002